sensor_id;sensor_type;location;lat;lon;timestamp;temperature;humidity
4054;DHT22;2042;47.956;9.222;2024-02-15T00:02:20;4.00;10.70
4054;DHT22;2042;47.956;9.222;2024-02-15T00:04:46;3.90;11.50
4054;DHT22;2042;47.956;9.222;2024-02-15T00:07:12;3.70;12.20
4054;DHT22;2042;47.956;9.222;2024-02-15T00:09:38;3.60;13.00
4054;DHT22;2042;47.956;9.222;2024-02-15T00:12:03;3.50;13.70
4054;DHT22;2042;47.956;9.222;2024-02-15T00:14:30;3.40;14.60
4054;DHT22;2042;47.956;9.222;2024-02-15T00:16:57;3.30;15.00
4054;DHT22;2042;47.956;9.222;2024-02-15T00:19:22;3.10;16.30
4054;DHT22;2042;47.956;9.222;2024-02-15T00:21:48;3.00;21.60
4054;DHT22;2042;47.956;9.222;2024-02-15T00:24:15;2.90;33.40
4054;DHT22;2042;47.956;9.222;2024-02-15T00:26:42;2.80;35.30
4054;DHT22;2042;47.956;9.222;2024-02-15T00:29:09;2.90;39.60
4054;DHT22;2042;47.956;9.222;2024-02-15T00:31:35;2.90;42.70
4054;DHT22;2042;47.956;9.222;2024-02-15T00:34:01;2.90;43.50
4054;DHT22;2042;47.956;9.222;2024-02-15T00:36:28;2.80;43.80
4054;DHT22;2042;47.956;9.222;2024-02-15T00:38:55;2.70;44.50
4054;DHT22;2042;47.956;9.222;2024-02-15T00:41:20;2.60;45.40
4054;DHT22;2042;47.956;9.222;2024-02-15T00:43:47;2.50;47.00
4054;DHT22;2042;47.956;9.222;2024-02-15T00:46:13;2.40;48.10
4054;DHT22;2042;47.956;9.222;2024-02-15T00:48:39;2.40;47.50
4054;DHT22;2042;47.956;9.222;2024-02-15T00:51:05;2.30;45.40
4054;DHT22;2042;47.956;9.222;2024-02-15T00:53:31;2.20;45.50
4054;DHT22;2042;47.956;9.222;2024-02-15T00:55:56;1.90;46.00
4054;DHT22;2042;47.956;9.222;2024-02-15T00:58:22;1.90;47.00
4054;DHT22;2042;47.956;9.222;2024-02-15T01:00:48;1.70;47.70
4054;DHT22;2042;47.956;9.222;2024-02-15T01:03:14;1.70;51.30
4054;DHT22;2042;47.956;9.222;2024-02-15T01:05:41;1.30;53.40
4054;DHT22;2042;47.956;9.222;2024-02-15T01:08:06;1.50;57.10
4054;DHT22;2042;47.956;9.222;2024-02-15T01:10:34;1.50;60.30
4054;DHT22;2042;47.956;9.222;2024-02-15T01:13:00;1.60;61.60
4054;DHT22;2042;47.956;9.222;2024-02-15T01:15:26;1.60;62.40
4054;DHT22;2042;47.956;9.222;2024-02-15T01:17:51;1.50;60.60
4054;DHT22;2042;47.956;9.222;2024-02-15T01:20:17;1.40;59.20
4054;DHT22;2042;47.956;9.222;2024-02-15T01:22:43;1.30;57.60
4054;DHT22;2042;47.956;9.222;2024-02-15T01:25:09;1.00;58.80
4054;DHT22;2042;47.956;9.222;2024-02-15T01:27:36;0.90;60.20
4054;DHT22;2042;47.956;9.222;2024-02-15T01:30:04;0.80;61.20
4054;DHT22;2042;47.956;9.222;2024-02-15T01:32:30;0.70;62.70
4054;DHT22;2042;47.956;9.222;2024-02-15T01:34:56;0.70;64.20
4054;DHT22;2042;47.956;9.222;2024-02-15T01:37:22;0.60;64.80
4054;DHT22;2042;47.956;9.222;2024-02-15T01:39:48;0.60;65.40
4054;DHT22;2042;47.956;9.222;2024-02-15T01:42:14;0.60;66.50
4054;DHT22;2042;47.956;9.222;2024-02-15T01:44:40;0.50;66.60
4054;DHT22;2042;47.956;9.222;2024-02-15T01:47:06;0.50;66.90
4054;DHT22;2042;47.956;9.222;2024-02-15T02:58:24;-1.10;60.60
4054;DHT22;2042;47.956;9.222;2024-02-15T03:50:02;-0.40;58.20
4054;DHT22;2042;47.956;9.222;2024-02-15T03:52:28;-0.50;41.00
4054;DHT22;2042;47.956;9.222;2024-02-15T03:54:57;-0.60;41.70
4054;DHT22;2042;47.956;9.222;2024-02-15T03:57:26;-0.80;41.20
4054;DHT22;2042;47.956;9.222;2024-02-15T03:59:52;-0.80;41.40
4054;DHT22;2042;47.956;9.222;2024-02-15T04:02:20;-0.90;42.00
4054;DHT22;2042;47.956;9.222;2024-02-15T04:04:46;-1.00;42.00
4054;DHT22;2042;47.956;9.222;2024-02-15T04:07:15;-0.90;42.50
4054;DHT22;2042;47.956;9.222;2024-02-15T04:09:42;-1.00;42.30
4054;DHT22;2042;47.956;9.222;2024-02-15T04:12:08;-1.00;42.40
4054;DHT22;2042;47.956;9.222;2024-02-15T04:14:34;-1.10;42.70
4054;DHT22;2042;47.956;9.222;2024-02-15T04:17:00;-1.10;43.50
4054;DHT22;2042;47.956;9.222;2024-02-15T04:19:27;-1.10;45.80
4054;DHT22;2042;47.956;9.222;2024-02-15T04:21:53;-1.10;45.60
4054;DHT22;2042;47.956;9.222;2024-02-15T04:24:21;-1.00;46.60
4054;DHT22;2042;47.956;9.222;2024-02-15T04:26:47;-0.90;47.30
4054;DHT22;2042;47.956;9.222;2024-02-15T04:29:14;-1.00;47.00
4054;DHT22;2042;47.956;9.222;2024-02-15T04:31:40;-1.00;47.40
4054;DHT22;2042;47.956;9.222;2024-02-15T04:34:08;-1.10;48.20
4054;DHT22;2042;47.956;9.222;2024-02-15T04:36:35;-1.10;48.90
4054;DHT22;2042;47.956;9.222;2024-02-15T04:39:00;-1.10;48.50
4054;DHT22;2042;47.956;9.222;2024-02-15T04:41:28;-1.20;62.70
4054;DHT22;2042;47.956;9.222;2024-02-15T06:20:14;-1.70;28.40
4054;DHT22;2042;47.956;9.222;2024-02-15T06:22:41;-1.70;29.50
4054;DHT22;2042;47.956;9.222;2024-02-15T06:25:07;-1.60;30.90
4054;DHT22;2042;47.956;9.222;2024-02-15T06:27:32;-1.60;31.20
4054;DHT22;2042;47.956;9.222;2024-02-15T06:29:58;-1.70;31.00
4054;DHT22;2042;47.956;9.222;2024-02-15T06:32:43;-1.80;30.60
4054;DHT22;2042;47.956;9.222;2024-02-15T06:35:27;-1.90;30.40
4054;DHT22;2042;47.956;9.222;2024-02-15T06:38:11;-2.00;30.60
4054;DHT22;2042;47.956;9.222;2024-02-15T06:40:55;-2.00;31.30
4054;DHT22;2042;47.956;9.222;2024-02-15T06:43:21;-1.90;32.70
4054;DHT22;2042;47.956;9.222;2024-02-15T06:45:46;-1.70;34.00
4054;DHT22;2042;47.956;9.222;2024-02-15T06:48:15;-1.70;34.60
4054;DHT22;2042;47.956;9.222;2024-02-15T06:50:41;-1.60;35.30
4054;DHT22;2042;47.956;9.222;2024-02-15T06:53:07;-1.40;36.60
4054;DHT22;2042;47.956;9.222;2024-02-15T06:55:33;-1.30;37.00
4054;DHT22;2042;47.956;9.222;2024-02-15T06:57:59;-1.30;37.10
4054;DHT22;2042;47.956;9.222;2024-02-15T07:00:25;-1.30;37.40
4054;DHT22;2042;47.956;9.222;2024-02-15T07:02:51;-1.20;38.10
4054;DHT22;2042;47.956;9.222;2024-02-15T07:05:16;-1.10;38.60
4054;DHT22;2042;47.956;9.222;2024-02-15T07:07:43;-1.10;39.10
4054;DHT22;2042;47.956;9.222;2024-02-15T07:10:09;-1.00;39.50
4054;DHT22;2042;47.956;9.222;2024-02-15T07:12:36;-0.90;40.40
4054;DHT22;2042;47.956;9.222;2024-02-15T07:15:05;-0.70;41.20
4054;DHT22;2042;47.956;9.222;2024-02-15T07:24:50;1.10;47.10
4054;DHT22;2042;47.956;9.222;2024-02-15T07:27:15;1.80;48.90
4054;DHT22;2042;47.956;9.222;2024-02-15T07:29:42;2.60;50.80
4054;DHT22;2042;47.956;9.222;2024-02-15T07:32:07;3.40;52.80
4054;DHT22;2042;47.956;9.222;2024-02-15T07:34:33;4.30;55.10
4054;DHT22;2042;47.956;9.222;2024-02-15T07:36:59;5.20;56.60
4054;DHT22;2042;47.956;9.222;2024-02-15T07:39:25;6.10;56.30
4054;DHT22;2042;47.956;9.222;2024-02-15T07:41:55;6.80;48.60
4054;DHT22;2042;47.956;9.222;2024-02-15T07:44:23;7.60;36.60
4054;DHT22;2042;47.956;9.222;2024-02-15T07:46:50;8.30;22.00
4054;DHT22;2042;47.956;9.222;2024-02-15T07:49:16;8.80;7.90
4054;DHT22;2042;47.956;9.222;2024-02-15T07:51:43;9.40;1.00
4054;DHT22;2042;47.956;9.222;2024-02-15T07:54:09;10.00;1.00
4054;DHT22;2042;47.956;9.222;2024-02-15T07:56:36;10.60;1.00
4054;DHT22;2042;47.956;9.222;2024-02-15T07:59:01;10.90;1.00
4054;DHT22;2042;47.956;9.222;2024-02-15T08:01:28;11.00;1.00
4054;DHT22;2042;47.956;9.222;2024-02-15T08:03:56;11.00;1.00
4054;DHT22;2042;47.956;9.222;2024-02-15T08:06:22;11.20;1.00
4054;DHT22;2042;47.956;9.222;2024-02-15T08:08:53;11.50;1.00
4054;DHT22;2042;47.956;9.222;2024-02-15T08:11:19;11.70;1.00
4054;DHT22;2042;47.956;9.222;2024-02-15T08:13:50;12.00;1.00
4054;DHT22;2042;47.956;9.222;2024-02-15T08:16:22;12.40;1.00
4054;DHT22;2042;47.956;9.222;2024-02-15T08:18:49;12.70;1.00
4054;DHT22;2042;47.956;9.222;2024-02-15T08:21:18;12.70;1.00
4054;DHT22;2042;47.956;9.222;2024-02-15T08:23:43;12.70;1.00
4054;DHT22;2042;47.956;9.222;2024-02-15T08:26:10;12.80;1.00
4054;DHT22;2042;47.956;9.222;2024-02-15T08:28:38;12.80;1.00
4054;DHT22;2042;47.956;9.222;2024-02-15T08:31:04;12.90;1.00
4054;DHT22;2042;47.956;9.222;2024-02-15T08:33:30;13.60;1.00
4054;DHT22;2042;47.956;9.222;2024-02-15T08:35:56;14.30;1.00
4054;DHT22;2042;47.956;9.222;2024-02-15T08:38:25;15.10;1.00
4054;DHT22;2042;47.956;9.222;2024-02-15T08:40:51;15.80;1.00
4054;DHT22;2042;47.956;9.222;2024-02-15T08:43:17;16.30;1.00
4054;DHT22;2042;47.956;9.222;2024-02-15T08:45:43;16.80;1.00
4054;DHT22;2042;47.956;9.222;2024-02-15T08:48:09;17.70;1.00
4054;DHT22;2042;47.956;9.222;2024-02-15T08:50:34;18.60;1.00
4054;DHT22;2042;47.956;9.222;2024-02-15T08:53:01;19.30;1.00
4054;DHT22;2042;47.956;9.222;2024-02-15T08:55:27;19.50;1.00
4054;DHT22;2042;47.956;9.222;2024-02-15T08:57:53;19.50;1.00
4054;DHT22;2042;47.956;9.222;2024-02-15T09:00:20;19.50;1.00
4054;DHT22;2042;47.956;9.222;2024-02-15T09:02:46;19.60;1.00
4054;DHT22;2042;47.956;9.222;2024-02-15T09:05:13;19.80;1.00
4054;DHT22;2042;47.956;9.222;2024-02-15T09:07:43;19.80;1.00
4054;DHT22;2042;47.956;9.222;2024-02-15T09:10:10;20.00;1.00
4054;DHT22;2042;47.956;9.222;2024-02-15T09:12:45;20.30;1.00
4054;DHT22;2042;47.956;9.222;2024-02-15T09:15:14;21.00;1.00
4054;DHT22;2042;47.956;9.222;2024-02-15T09:17:40;21.60;1.00
4054;DHT22;2042;47.956;9.222;2024-02-15T09:20:07;21.90;1.00
4054;DHT22;2042;47.956;9.222;2024-02-15T09:22:34;22.20;1.00
4054;DHT22;2042;47.956;9.222;2024-02-15T09:25:02;23.00;1.00
4054;DHT22;2042;47.956;9.222;2024-02-15T09:27:27;23.40;1.00
4054;DHT22;2042;47.956;9.222;2024-02-15T09:29:53;23.70;1.00
4054;DHT22;2042;47.956;9.222;2024-02-15T09:32:20;24.10;1.00
4054;DHT22;2042;47.956;9.222;2024-02-15T09:34:48;24.90;1.00
4054;DHT22;2042;47.956;9.222;2024-02-15T09:37:14;25.50;1.00
4054;DHT22;2042;47.956;9.222;2024-02-15T09:39:41;25.70;1.00
4054;DHT22;2042;47.956;9.222;2024-02-15T09:42:07;25.70;1.00
4054;DHT22;2042;47.956;9.222;2024-02-15T09:44:33;26.00;1.00
4054;DHT22;2042;47.956;9.222;2024-02-15T09:49:27;26.70;1.00
4054;DHT22;2042;47.956;9.222;2024-02-15T09:51:53;26.00;1.00
4054;DHT22;2042;47.956;9.222;2024-02-15T09:54:19;24.90;1.00
4054;DHT22;2042;47.956;9.222;2024-02-15T09:56:51;24.00;1.00
4054;DHT22;2042;47.956;9.222;2024-02-15T09:59:18;23.90;1.00
4054;DHT22;2042;47.956;9.222;2024-02-15T10:01:47;23.80;1.00
4054;DHT22;2042;47.956;9.222;2024-02-15T10:04:13;23.30;1.00
4054;DHT22;2042;47.956;9.222;2024-02-15T10:06:42;22.80;1.00
4054;DHT22;2042;47.956;9.222;2024-02-15T10:09:27;22.40;1.00
4054;DHT22;2042;47.956;9.222;2024-02-15T10:12:03;21.90;1.00
4054;DHT22;2042;47.956;9.222;2024-02-15T10:14:32;21.60;1.00
4054;DHT22;2042;47.956;9.222;2024-02-15T10:17:06;21.20;1.00
4054;DHT22;2042;47.956;9.222;2024-02-15T10:19:35;21.10;1.00
4054;DHT22;2042;47.956;9.222;2024-02-15T10:22:08;21.10;1.00
4054;DHT22;2042;47.956;9.222;2024-02-15T10:24:34;20.90;1.00
4054;DHT22;2042;47.956;9.222;2024-02-15T10:27:04;20.60;1.00
4054;DHT22;2042;47.956;9.222;2024-02-15T10:29:31;20.30;1.00
4054;DHT22;2042;47.956;9.222;2024-02-15T10:31:57;20.00;1.00
4054;DHT22;2042;47.956;9.222;2024-02-15T10:34:24;19.50;1.00
4054;DHT22;2042;47.956;9.222;2024-02-15T10:37:10;19.20;1.00
4054;DHT22;2042;47.956;9.222;2024-02-15T10:39:36;19.00;1.00
4054;DHT22;2042;47.956;9.222;2024-02-15T10:42:03;19.00;1.00
4054;DHT22;2042;47.956;9.222;2024-02-15T10:44:37;18.90;1.00
4054;DHT22;2042;47.956;9.222;2024-02-15T10:47:04;18.70;1.00
4054;DHT22;2042;47.956;9.222;2024-02-15T10:49:34;18.50;1.00
4054;DHT22;2042;47.956;9.222;2024-02-15T10:52:01;18.40;1.00
4054;DHT22;2042;47.956;9.222;2024-02-15T10:54:50;18.50;1.00
4054;DHT22;2042;47.956;9.222;2024-02-15T10:57:20;18.70;1.00
4054;DHT22;2042;47.956;9.222;2024-02-15T10:59:57;19.50;1.00
4054;DHT22;2042;47.956;9.222;2024-02-15T11:02:36;21.80;1.00
4054;DHT22;2042;47.956;9.222;2024-02-15T11:05:08;24.20;1.00
4054;DHT22;2042;47.956;9.222;2024-02-15T11:07:38;26.40;1.00
4054;DHT22;2042;47.956;9.222;2024-02-15T11:10:05;27.90;1.00
4054;DHT22;2042;47.956;9.222;2024-02-15T11:12:36;29.10;1.00
4054;DHT22;2042;47.956;9.222;2024-02-15T11:15:02;30.10;1.00
4054;DHT22;2042;47.956;9.222;2024-02-15T11:23:03;31.40;1.00
4054;DHT22;2042;47.956;9.222;2024-02-15T11:25:38;31.30;1.00
4054;DHT22;2042;47.956;9.222;2024-02-15T11:30:52;29.80;1.00
4054;DHT22;2042;47.956;9.222;2024-02-15T11:33:31;29.50;1.00
4054;DHT22;2042;47.956;9.222;2024-02-15T11:36:08;29.50;1.00
4054;DHT22;2042;47.956;9.222;2024-02-15T11:38:35;29.70;1.00
4054;DHT22;2042;47.956;9.222;2024-02-15T11:41:05;29.70;1.00
4054;DHT22;2042;47.956;9.222;2024-02-15T11:46:33;29.00;1.00
4054;DHT22;2042;47.956;9.222;2024-02-15T11:49:00;28.40;1.00
4054;DHT22;2042;47.956;9.222;2024-02-15T11:51:26;28.00;1.00
4054;DHT22;2042;47.956;9.222;2024-02-15T11:54:03;27.90;1.00
4054;DHT22;2042;47.956;9.222;2024-02-15T11:59:16;27.80;1.00
4054;DHT22;2042;47.956;9.222;2024-02-15T12:01:58;28.20;1.00
4054;DHT22;2042;47.956;9.222;2024-02-15T12:04:43;28.50;1.00
4054;DHT22;2042;47.956;9.222;2024-02-15T12:07:31;28.20;1.00
4054;DHT22;2042;47.956;9.222;2024-02-15T12:10:19;27.50;1.00
4054;DHT22;2042;47.956;9.222;2024-02-15T12:13:03;26.80;1.00
4054;DHT22;2042;47.956;9.222;2024-02-15T12:16:08;26.80;1.00
4054;DHT22;2042;47.956;9.222;2024-02-15T12:18:52;26.50;1.00
4054;DHT22;2042;47.956;9.222;2024-02-15T12:21:24;26.20;1.00
4054;DHT22;2042;47.956;9.222;2024-02-15T12:23:52;26.20;1.00
4054;DHT22;2042;47.956;9.222;2024-02-15T12:26:21;25.70;1.00
4054;DHT22;2042;47.956;9.222;2024-02-15T12:28:53;25.40;1.00
4054;DHT22;2042;47.956;9.222;2024-02-15T12:31:22;25.10;1.00
4054;DHT22;2042;47.956;9.222;2024-02-15T12:34:02;25.00;1.00
4054;DHT22;2042;47.956;9.222;2024-02-15T12:36:35;24.40;1.00
4054;DHT22;2042;47.956;9.222;2024-02-15T12:39:05;23.70;1.00
4054;DHT22;2042;47.956;9.222;2024-02-15T12:41:41;23.20;1.00
4054;DHT22;2042;47.956;9.222;2024-02-15T12:44:16;23.10;1.00
4054;DHT22;2042;47.956;9.222;2024-02-15T12:46:42;23.00;1.00
4054;DHT22;2042;47.956;9.222;2024-02-15T12:51:50;22.30;1.00
4054;DHT22;2042;47.956;9.222;2024-02-15T12:54:23;22.20;1.00
4054;DHT22;2042;47.956;9.222;2024-02-15T12:56:49;22.40;1.00
4054;DHT22;2042;47.956;9.222;2024-02-15T12:59:18;22.40;1.00
4054;DHT22;2042;47.956;9.222;2024-02-15T13:01:45;22.20;1.00
4054;DHT22;2042;47.956;9.222;2024-02-15T13:04:23;21.60;1.00
4054;DHT22;2042;47.956;9.222;2024-02-15T13:06:49;21.10;1.00
4054;DHT22;2042;47.956;9.222;2024-02-15T13:09:15;20.90;1.00
4054;DHT22;2042;47.956;9.222;2024-02-15T13:11:41;21.50;1.00
4054;DHT22;2042;47.956;9.222;2024-02-15T13:14:10;22.10;1.00
4054;DHT22;2042;47.956;9.222;2024-02-15T13:16:37;22.60;1.00
4054;DHT22;2042;47.956;9.222;2024-02-15T13:19:03;23.00;1.00
4054;DHT22;2042;47.956;9.222;2024-02-15T13:21:33;23.60;1.00
4054;DHT22;2042;47.956;9.222;2024-02-15T13:24:00;24.30;1.00
4054;DHT22;2042;47.956;9.222;2024-02-15T13:26:30;24.60;1.00
4054;DHT22;2042;47.956;9.222;2024-02-15T13:28:56;24.40;1.00
4054;DHT22;2042;47.956;9.222;2024-02-15T13:31:21;23.90;1.00
4054;DHT22;2042;47.956;9.222;2024-02-15T13:33:48;23.40;1.00
4054;DHT22;2042;47.956;9.222;2024-02-15T13:36:13;23.00;1.00
4054;DHT22;2042;47.956;9.222;2024-02-15T13:38:41;22.10;1.00
4054;DHT22;2042;47.956;9.222;2024-02-15T13:41:07;21.30;1.00
4054;DHT22;2042;47.956;9.222;2024-02-15T13:43:34;20.60;1.00
4054;DHT22;2042;47.956;9.222;2024-02-15T13:45:59;20.30;1.00
4054;DHT22;2042;47.956;9.222;2024-02-15T13:48:30;20.10;1.00
4054;DHT22;2042;47.956;9.222;2024-02-15T13:50:56;19.90;1.00
4054;DHT22;2042;47.956;9.222;2024-02-15T13:53:23;19.60;1.00
4054;DHT22;2042;47.956;9.222;2024-02-15T13:55:50;19.40;1.00
4054;DHT22;2042;47.956;9.222;2024-02-15T13:58:17;19.10;1.00
4054;DHT22;2042;47.956;9.222;2024-02-15T14:00:43;19.10;1.00
4054;DHT22;2042;47.956;9.222;2024-02-15T14:03:11;19.00;1.00
4054;DHT22;2042;47.956;9.222;2024-02-15T14:05:36;18.90;1.00
4054;DHT22;2042;47.956;9.222;2024-02-15T14:08:05;18.80;1.00
4054;DHT22;2042;47.956;9.222;2024-02-15T14:10:32;18.60;1.00
4054;DHT22;2042;47.956;9.222;2024-02-15T14:13:00;18.40;1.00
4054;DHT22;2042;47.956;9.222;2024-02-15T14:15:31;18.40;1.00
4054;DHT22;2042;47.956;9.222;2024-02-15T14:18:03;18.10;1.00
4054;DHT22;2042;47.956;9.222;2024-02-15T14:20:29;17.70;1.00
4054;DHT22;2042;47.956;9.222;2024-02-15T14:22:55;17.30;1.00
4054;DHT22;2042;47.956;9.222;2024-02-15T14:25:25;17.10;1.00
4054;DHT22;2042;47.956;9.222;2024-02-15T14:27:56;16.80;1.00
4054;DHT22;2042;47.956;9.222;2024-02-15T14:30:22;17.00;1.00
4054;DHT22;2042;47.956;9.222;2024-02-15T14:33:07;17.10;1.00
4054;DHT22;2042;47.956;9.222;2024-02-15T14:35:41;17.30;1.00
4054;DHT22;2042;47.956;9.222;2024-02-15T14:38:09;17.40;1.00
4054;DHT22;2042;47.956;9.222;2024-02-15T14:40:38;17.40;1.00
4054;DHT22;2042;47.956;9.222;2024-02-15T14:43:05;17.40;1.00
4054;DHT22;2042;47.956;9.222;2024-02-15T14:45:34;17.50;1.00
4054;DHT22;2042;47.956;9.222;2024-02-15T14:48:02;17.70;1.00
4054;DHT22;2042;47.956;9.222;2024-02-15T14:50:28;17.70;1.00
4054;DHT22;2042;47.956;9.222;2024-02-15T14:52:54;17.70;1.00
4054;DHT22;2042;47.956;9.222;2024-02-15T14:55:20;17.70;1.00
4054;DHT22;2042;47.956;9.222;2024-02-15T14:57:47;17.60;1.00
4054;DHT22;2042;47.956;9.222;2024-02-15T15:00:13;17.50;1.00
4054;DHT22;2042;47.956;9.222;2024-02-15T15:02:50;17.40;1.00
4054;DHT22;2042;47.956;9.222;2024-02-15T15:05:16;17.20;1.00
4054;DHT22;2042;47.956;9.222;2024-02-15T15:08:01;17.10;1.00
4054;DHT22;2042;47.956;9.222;2024-02-15T15:10:46;16.90;1.00
4054;DHT22;2042;47.956;9.222;2024-02-15T15:13:32;16.70;1.00
4054;DHT22;2042;47.956;9.222;2024-02-15T15:16:01;16.60;1.00
4054;DHT22;2042;47.956;9.222;2024-02-15T15:18:31;16.50;1.00
4054;DHT22;2042;47.956;9.222;2024-02-15T15:20:57;16.30;1.00
4054;DHT22;2042;47.956;9.222;2024-02-15T15:23:24;16.20;1.00
4054;DHT22;2042;47.956;9.222;2024-02-15T15:25:50;16.10;1.00
4054;DHT22;2042;47.956;9.222;2024-02-15T15:28:16;15.90;1.00
4054;DHT22;2042;47.956;9.222;2024-02-15T15:30:42;15.70;1.00
4054;DHT22;2042;47.956;9.222;2024-02-15T15:33:16;15.70;1.00
4054;DHT22;2042;47.956;9.222;2024-02-15T15:35:45;15.40;1.00
4054;DHT22;2042;47.956;9.222;2024-02-15T15:38:11;15.20;1.00
4054;DHT22;2042;47.956;9.222;2024-02-15T15:40:37;15.10;1.00
4054;DHT22;2042;47.956;9.222;2024-02-15T15:43:03;15.00;1.00
4054;DHT22;2042;47.956;9.222;2024-02-15T15:45:29;14.80;1.00
4054;DHT22;2042;47.956;9.222;2024-02-15T15:47:55;14.60;1.00
4054;DHT22;2042;47.956;9.222;2024-02-15T15:50:21;14.40;1.00
4054;DHT22;2042;47.956;9.222;2024-02-15T15:52:47;14.30;1.00
4054;DHT22;2042;47.956;9.222;2024-02-15T15:55:14;14.10;1.00
4054;DHT22;2042;47.956;9.222;2024-02-15T15:57:40;13.80;1.00
4054;DHT22;2042;47.956;9.222;2024-02-15T16:00:07;13.50;1.00
4054;DHT22;2042;47.956;9.222;2024-02-15T16:02:38;13.30;1.00
4054;DHT22;2042;47.956;9.222;2024-02-15T16:05:04;13.00;1.00
4054;DHT22;2042;47.956;9.222;2024-02-15T16:07:32;12.70;1.00
4054;DHT22;2042;47.956;9.222;2024-02-15T16:09:57;12.50;1.00
4054;DHT22;2042;47.956;9.222;2024-02-15T16:12:23;12.30;1.00
4054;DHT22;2042;47.956;9.222;2024-02-15T16:14:49;12.20;1.00
4054;DHT22;2042;47.956;9.222;2024-02-15T16:17:15;12.00;1.00
4054;DHT22;2042;47.956;9.222;2024-02-15T16:19:41;11.80;1.00
4054;DHT22;2042;47.956;9.222;2024-02-15T16:22:07;11.60;1.00
4054;DHT22;2042;47.956;9.222;2024-02-15T16:24:33;11.50;1.00
4054;DHT22;2042;47.956;9.222;2024-02-15T16:27:03;11.30;1.00
4054;DHT22;2042;47.956;9.222;2024-02-15T16:29:32;11.20;1.00
4054;DHT22;2042;47.956;9.222;2024-02-15T16:31:58;11.10;1.00
4054;DHT22;2042;47.956;9.222;2024-02-15T16:34:24;11.00;1.00
4054;DHT22;2042;47.956;9.222;2024-02-15T16:36:50;10.80;1.00
4054;DHT22;2042;47.956;9.222;2024-02-15T16:39:16;10.70;1.00
4054;DHT22;2042;47.956;9.222;2024-02-15T16:41:46;10.50;1.00
4054;DHT22;2042;47.956;9.222;2024-02-15T16:44:12;10.30;1.00
4054;DHT22;2042;47.956;9.222;2024-02-15T16:46:38;10.10;1.00
4054;DHT22;2042;47.956;9.222;2024-02-15T16:49:03;9.90;1.00
4054;DHT22;2042;47.956;9.222;2024-02-15T16:51:30;9.70;1.00
4054;DHT22;2042;47.956;9.222;2024-02-15T16:53:57;9.50;1.00
4054;DHT22;2042;47.956;9.222;2024-02-15T16:56:24;9.20;1.00
4054;DHT22;2042;47.956;9.222;2024-02-15T16:58:51;9.00;1.00
4054;DHT22;2042;47.956;9.222;2024-02-15T17:01:22;8.90;1.00
4054;DHT22;2042;47.956;9.222;2024-02-15T17:03:48;8.80;1.00
4054;DHT22;2042;47.956;9.222;2024-02-15T17:06:16;8.80;1.00
4054;DHT22;2042;47.956;9.222;2024-02-15T17:08:42;8.70;1.00
4054;DHT22;2042;47.956;9.222;2024-02-15T17:11:07;8.60;1.00
4054;DHT22;2042;47.956;9.222;2024-02-15T17:13:34;8.60;1.00
4054;DHT22;2042;47.956;9.222;2024-02-15T17:16:02;8.40;1.00
4054;DHT22;2042;47.956;9.222;2024-02-15T17:18:27;8.20;1.00
4054;DHT22;2042;47.956;9.222;2024-02-15T17:20:53;8.10;1.00
4054;DHT22;2042;47.956;9.222;2024-02-15T17:23:19;8.00;1.00
4054;DHT22;2042;47.956;9.222;2024-02-15T17:25:45;7.90;1.00
4054;DHT22;2042;47.956;9.222;2024-02-15T17:28:11;7.80;1.00
4054;DHT22;2042;47.956;9.222;2024-02-15T17:30:37;7.80;1.00
4054;DHT22;2042;47.956;9.222;2024-02-15T17:33:03;7.70;1.00
4054;DHT22;2042;47.956;9.222;2024-02-15T17:35:32;7.70;1.00
4054;DHT22;2042;47.956;9.222;2024-02-15T17:38:00;7.70;1.00
4054;DHT22;2042;47.956;9.222;2024-02-15T17:40:25;7.60;1.00
4054;DHT22;2042;47.956;9.222;2024-02-15T17:42:51;7.60;1.00
4054;DHT22;2042;47.956;9.222;2024-02-15T17:45:16;7.50;1.00
4054;DHT22;2042;47.956;9.222;2024-02-15T17:47:42;7.50;1.00
4054;DHT22;2042;47.956;9.222;2024-02-15T17:50:11;7.60;1.00
4054;DHT22;2042;47.956;9.222;2024-02-15T17:52:40;7.50;1.00
4054;DHT22;2042;47.956;9.222;2024-02-15T17:55:08;7.40;1.00
4054;DHT22;2042;47.956;9.222;2024-02-15T17:57:37;7.40;1.00
4054;DHT22;2042;47.956;9.222;2024-02-15T18:00:08;7.30;1.00
4054;DHT22;2042;47.956;9.222;2024-02-15T18:02:39;7.30;1.00
4054;DHT22;2042;47.956;9.222;2024-02-15T18:05:07;7.30;1.00
4054;DHT22;2042;47.956;9.222;2024-02-15T18:07:34;7.20;1.00
4054;DHT22;2042;47.956;9.222;2024-02-15T18:10:00;7.20;1.00
4054;DHT22;2042;47.956;9.222;2024-02-15T18:12:29;7.20;1.00
4054;DHT22;2042;47.956;9.222;2024-02-15T18:14:55;7.20;1.00
4054;DHT22;2042;47.956;9.222;2024-02-15T18:17:20;7.10;1.40
4054;DHT22;2042;47.956;9.222;2024-02-15T18:19:46;7.10;2.10
4054;DHT22;2042;47.956;9.222;2024-02-15T18:22:11;7.10;1.70
4054;DHT22;2042;47.956;9.222;2024-02-15T18:24:40;7.00;1.00
4054;DHT22;2042;47.956;9.222;2024-02-15T18:27:06;6.90;1.00
4054;DHT22;2042;47.956;9.222;2024-02-15T18:29:31;6.80;1.40
4054;DHT22;2042;47.956;9.222;2024-02-15T18:31:57;6.70;2.00
4054;DHT22;2042;47.956;9.222;2024-02-15T18:34:24;6.70;3.00
4054;DHT22;2042;47.956;9.222;2024-02-15T18:36:50;6.60;3.80
4054;DHT22;2042;47.956;9.222;2024-02-15T18:39:15;6.50;4.00
4054;DHT22;2042;47.956;9.222;2024-02-15T18:41:41;6.40;5.00
4054;DHT22;2042;47.956;9.222;2024-02-15T18:44:11;6.40;6.10
4054;DHT22;2042;47.956;9.222;2024-02-15T18:46:37;6.30;6.40
4054;DHT22;2042;47.956;9.222;2024-02-15T18:49:03;6.20;7.10
4054;DHT22;2042;47.956;9.222;2024-02-15T18:51:28;6.10;7.50
4054;DHT22;2042;47.956;9.222;2024-02-15T18:53:54;6.00;7.40
4054;DHT22;2042;47.956;9.222;2024-02-15T18:56:20;5.90;10.30
4054;DHT22;2042;47.956;9.222;2024-02-15T18:58:46;5.80;10.30
4054;DHT22;2042;47.956;9.222;2024-02-15T19:01:12;5.70;9.20
4054;DHT22;2042;47.956;9.222;2024-02-15T19:03:39;5.50;9.70
4054;DHT22;2042;47.956;9.222;2024-02-15T19:06:07;5.40;10.80
4054;DHT22;2042;47.956;9.222;2024-02-15T19:08:39;5.30;12.80
4054;DHT22;2042;47.956;9.222;2024-02-15T19:11:05;5.30;14.60
4054;DHT22;2042;47.956;9.222;2024-02-15T19:13:31;5.30;15.80
4054;DHT22;2042;47.956;9.222;2024-02-15T19:15:57;5.20;16.20
4054;DHT22;2042;47.956;9.222;2024-02-15T19:18:23;5.10;16.40
4054;DHT22;2042;47.956;9.222;2024-02-15T19:20:54;5.00;17.50
4054;DHT22;2042;47.956;9.222;2024-02-15T19:23:20;4.90;17.80
4054;DHT22;2042;47.956;9.222;2024-02-15T19:25:45;4.80;16.90
4054;DHT22;2042;47.956;9.222;2024-02-15T19:28:12;4.60;15.90
4054;DHT22;2042;47.956;9.222;2024-02-15T19:30:38;4.40;15.90
4054;DHT22;2042;47.956;9.222;2024-02-15T19:33:04;4.30;17.20
4054;DHT22;2042;47.956;9.222;2024-02-15T19:35:29;4.30;19.70
4054;DHT22;2042;47.956;9.222;2024-02-15T19:37:57;4.30;20.90
4054;DHT22;2042;47.956;9.222;2024-02-15T19:40:23;4.20;20.50
4054;DHT22;2042;47.956;9.222;2024-02-15T19:42:49;4.10;20.10
4054;DHT22;2042;47.956;9.222;2024-02-15T19:45:15;3.90;20.00
4054;DHT22;2042;47.956;9.222;2024-02-15T19:47:45;3.90;20.60
4054;DHT22;2042;47.956;9.222;2024-02-15T19:50:11;3.80;20.70
4054;DHT22;2042;47.956;9.222;2024-02-15T19:52:40;3.70;22.10
4054;DHT22;2042;47.956;9.222;2024-02-15T19:55:06;3.80;24.40
4054;DHT22;2042;47.956;9.222;2024-02-15T19:57:32;3.80;25.00
4054;DHT22;2042;47.956;9.222;2024-02-15T19:59:58;3.80;24.40
4054;DHT22;2042;47.956;9.222;2024-02-15T20:02:25;3.70;24.10
4054;DHT22;2042;47.956;9.222;2024-02-15T20:04:52;3.60;24.10
4054;DHT22;2042;47.956;9.222;2024-02-15T20:07:18;3.60;25.40
4054;DHT22;2042;47.956;9.222;2024-02-15T20:09:48;3.60;26.20
4054;DHT22;2042;47.956;9.222;2024-02-15T20:12:14;3.60;26.20
4054;DHT22;2042;47.956;9.222;2024-02-15T20:14:40;3.50;26.10
4054;DHT22;2042;47.956;9.222;2024-02-15T20:17:06;3.50;27.60
4054;DHT22;2042;47.956;9.222;2024-02-15T20:19:31;3.60;28.60
4054;DHT22;2042;47.956;9.222;2024-02-15T20:21:57;3.70;29.20
4054;DHT22;2042;47.956;9.222;2024-02-15T20:24:23;3.70;29.50
4054;DHT22;2042;47.956;9.222;2024-02-15T20:26:49;3.70;30.10